sensor_id;sensor_type;location;lat;lon;timestamp;pressure;altitude;pressure_sealevel;temperature;humidity
22753;BME280;11543;43.144;24.684;2023-12-20T00:02:20;99076.75;;;4.90;72.50
22753;BME280;11543;43.144;24.684;2023-12-20T00:04:46;99080.59;;;4.86;72.82
22753;BME280;11543;43.144;24.684;2023-12-20T00:07:11;99085.00;;;4.98;73.09
22753;BME280;11543;43.144;24.684;2023-12-20T00:09:37;99061.03;;;4.87;72.86
22753;BME280;11543;43.144;24.684;2023-12-20T00:12:02;99049.94;;;4.93;73.44
22753;BME280;11543;43.144;24.684;2023-12-20T00:14:28;99050.53;;;4.97;72.97
22753;BME280;11543;43.144;24.684;2023-12-20T00:16:53;99054.09;;;5.08;73.16
22753;BME280;11543;43.144;24.684;2023-12-20T00:19:19;99041.53;;;5.10;73.18
22753;BME280;11543;43.144;24.684;2023-12-20T00:21:44;99045.72;;;5.26;73.06
22753;BME280;11543;43.144;24.684;2023-12-20T00:24:10;99067.53;;;5.42;73.53
22753;BME280;11543;43.144;24.684;2023-12-20T00:26:35;99075.75;;;5.50;72.88
22753;BME280;11543;43.144;24.684;2023-12-20T00:29:01;99055.81;;;5.44;72.92
22753;BME280;11543;43.144;24.684;2023-12-20T00:31:26;99057.88;;;5.52;72.45
22753;BME280;11543;43.144;24.684;2023-12-20T00:33:52;99062.00;;;5.67;72.39
22753;BME280;11543;43.144;24.684;2023-12-20T00:36:17;99044.56;;;5.63;72.03
22753;BME280;11543;43.144;24.684;2023-12-20T00:38:43;99045.78;;;5.70;71.65
22753;BME280;11543;43.144;24.684;2023-12-20T00:41:08;99034.53;;;5.67;71.80
22753;BME280;11543;43.144;24.684;2023-12-20T00:43:34;99052.69;;;5.73;71.96
22753;BME280;11543;43.144;24.684;2023-12-20T00:45:59;99044.56;;;5.63;71.76
22753;BME280;11543;43.144;24.684;2023-12-20T00:48:27;99021.56;;;5.40;71.25
22753;BME280;11543;43.144;24.684;2023-12-20T00:50:55;99035.19;;;5.24;71.47
22753;BME280;11543;43.144;24.684;2023-12-20T00:53:21;99007.16;;;4.96;71.59
22753;BME280;11543;43.144;24.684;2023-12-20T00:55:46;99028.16;;;4.88;71.45
22753;BME280;11543;43.144;24.684;2023-12-20T00:58:11;98994.94;;;4.59;71.43
22753;BME280;11543;43.144;24.684;2023-12-20T01:00:37;99022.41;;;4.70;72.12
22753;BME280;11543;43.144;24.684;2023-12-20T01:03:03;99020.41;;;4.85;72.66
22753;BME280;11543;43.144;24.684;2023-12-20T01:05:29;99007.22;;;4.84;72.90
22753;BME280;11543;43.144;24.684;2023-12-20T01:07:54;99027.72;;;5.05;73.15
22753;BME280;11543;43.144;24.684;2023-12-20T01:10:20;98998.22;;;4.97;73.20
22753;BME280;11543;43.144;24.684;2023-12-20T01:12:45;99010.34;;;5.12;73.32
22753;BME280;11543;43.144;24.684;2023-12-20T01:15:11;99004.31;;;5.10;73.19
22753;BME280;11543;43.144;24.684;2023-12-20T01:17:36;98996.28;;;4.99;72.84
22753;BME280;11543;43.144;24.684;2023-12-20T01:20:02;98994.97;;;5.05;73.26
22753;BME280;11543;43.144;24.684;2023-12-20T01:22:28;98993.44;;;5.13;73.18
22753;BME280;11543;43.144;24.684;2023-12-20T01:24:53;98990.81;;;5.25;73.50
22753;BME280;11543;43.144;24.684;2023-12-20T01:27:19;98980.91;;;5.27;72.90
22753;BME280;11543;43.144;24.684;2023-12-20T01:29:44;98978.25;;;5.27;72.71
22753;BME280;11543;43.144;24.684;2023-12-20T01:32:10;98986.47;;;5.35;73.04
22753;BME280;11543;43.144;24.684;2023-12-20T01:34:35;98966.59;;;5.17;72.73
22753;BME280;11543;43.144;24.684;2023-12-20T01:37:01;98943.34;;;4.96;72.60
22753;BME280;11543;43.144;24.684;2023-12-20T01:39:27;98962.06;;;4.95;72.64
22753;BME280;11543;43.144;24.684;2023-12-20T01:41:53;98967.03;;;4.88;72.72
22753;BME280;11543;43.144;24.684;2023-12-20T01:44:19;98957.94;;;4.79;72.68
22753;BME280;11543;43.144;24.684;2023-12-20T01:46:45;98945.59;;;4.78;73.22
22753;BME280;11543;43.144;24.684;2023-12-20T01:49:11;98915.41;;;4.79;73.44
22753;BME280;11543;43.144;24.684;2023-12-20T01:51:36;98942.41;;;5.08;73.22
22753;BME280;11543;43.144;24.684;2023-12-20T01:54:02;98942.78;;;5.15;73.19
22753;BME280;11543;43.144;24.684;2023-12-20T01:56:29;98919.69;;;5.04;73.30
22753;BME280;11543;43.144;24.684;2023-12-20T01:58:55;98907.59;;;5.00;73.16
22753;BME280;11543;43.144;24.684;2023-12-20T02:01:22;98935.94;;;5.24;73.04
22753;BME280;11543;43.144;24.684;2023-12-20T02:03:47;98936.78;;;5.24;72.29
22753;BME280;11543;43.144;24.684;2023-12-20T02:06:13;98944.88;;;5.23;72.60
22753;BME280;11543;43.144;24.684;2023-12-20T02:08:40;98900.56;;;4.99;72.83
22753;BME280;11543;43.144;24.684;2023-12-20T02:11:05;98923.34;;;5.26;72.66
22753;BME280;11543;43.144;24.684;2023-12-20T02:13:31;98904.25;;;5.21;72.55
22753;BME280;11543;43.144;24.684;2023-12-20T02:15:57;98904.25;;;5.21;72.81
22753;BME280;11543;43.144;24.684;2023-12-20T02:18:23;98919.97;;;5.35;72.58
22753;BME280;11543;43.144;24.684;2023-12-20T02:20:49;98894.47;;;5.21;72.99
22753;BME280;11543;43.144;24.684;2023-12-20T02:23:14;98916.13;;;5.39;72.65
22753;BME280;11543;43.144;24.684;2023-12-20T02:25:40;98859.00;;;5.09;72.09
22753;BME280;11543;43.144;24.684;2023-12-20T02:28:05;98890.47;;;5.38;72.11
22753;BME280;11543;43.144;24.684;2023-12-20T02:30:31;98887.09;;;5.36;72.11
22753;BME280;11543;43.144;24.684;2023-12-20T02:33:02;98883.47;;;5.37;71.70
22753;BME280;11543;43.144;24.684;2023-12-20T02:35:28;98874.75;;;5.35;71.80
22753;BME280;11543;43.144;24.684;2023-12-20T02:37:54;98861.22;;;5.27;71.73
22753;BME280;11543;43.144;24.684;2023-12-20T02:40:19;98846.34;;;5.24;71.42
22753;BME280;11543;43.144;24.684;2023-12-20T02:42:45;98890.34;;;5.51;71.80
22753;BME280;11543;43.144;24.684;2023-12-20T02:45:10;98834.13;;;5.22;71.50
22753;BME280;11543;43.144;24.684;2023-12-20T02:47:36;98834.25;;;5.20;71.62
22753;BME280;11543;43.144;24.684;2023-12-20T02:50:01;98848.88;;;5.37;71.83
22753;BME280;11543;43.144;24.684;2023-12-20T02:52:28;98841.28;;;5.21;71.66
22753;BME280;11543;43.144;24.684;2023-12-20T02:54:54;98849.69;;;5.04;71.79
22753;BME280;11543;43.144;24.684;2023-12-20T02:57:19;98852.34;;;4.93;71.83
22753;BME280;11543;43.144;24.684;2023-12-20T02:59:45;98830.94;;;4.61;71.77
22753;BME280;11543;43.144;24.684;2023-12-20T03:02:10;98830.81;;;4.62;72.39
22753;BME280;11543;43.144;24.684;2023-12-20T03:04:36;98862.84;;;4.83;72.32
22753;BME280;11543;43.144;24.684;2023-12-20T03:07:01;98842.06;;;4.77;72.93
22753;BME280;11543;43.144;24.684;2023-12-20T03:09:27;98834.31;;;4.63;72.53
22753;BME280;11543;43.144;24.684;2023-12-20T03:11:52;98844.72;;;4.66;72.67
22753;BME280;11543;43.144;24.684;2023-12-20T03:14:17;98845.78;;;4.63;73.22
22753;BME280;11543;43.144;24.684;2023-12-20T03:16:49;98856.56;;;4.73;73.54
22753;BME280;11543;43.144;24.684;2023-12-20T03:19:16;98857.06;;;4.89;73.93
22753;BME280;11543;43.144;24.684;2023-12-20T03:21:41;98825.53;;;4.85;74.29
22753;BME280;11543;43.144;24.684;2023-12-20T03:24:07;98834.34;;;4.96;74.24
22753;BME280;11543;43.144;24.684;2023-12-20T03:26:32;98829.28;;;5.04;73.99
22753;BME280;11543;43.144;24.684;2023-12-20T03:28:58;98823.72;;;5.07;73.83
22753;BME280;11543;43.144;24.684;2023-12-20T03:31:23;98835.56;;;5.15;73.82
22753;BME280;11543;43.144;24.684;2023-12-20T03:33:49;98825.88;;;5.02;73.69
22753;BME280;11543;43.144;24.684;2023-12-20T03:36:16;98809.44;;;4.86;73.35
22753;BME280;11543;43.144;24.684;2023-12-20T03:38:41;98805.34;;;4.71;73.33
22753;BME280;11543;43.144;24.684;2023-12-20T03:41:07;98786.38;;;4.64;74.00
22753;BME280;11543;43.144;24.684;2023-12-20T03:43:33;98808.97;;;4.81;73.67
22753;BME280;11543;43.144;24.684;2023-12-20T03:45:58;98780.22;;;4.75;73.94
22753;BME280;11543;43.144;24.684;2023-12-20T03:48:25;98806.78;;;4.97;74.11
22753;BME280;11543;43.144;24.684;2023-12-20T03:50:50;98800.28;;;5.01;74.11
22753;BME280;11543;43.144;24.684;2023-12-20T03:53:16;98797.00;;;5.09;73.51
22753;BME280;11543;43.144;24.684;2023-12-20T03:55:41;98776.34;;;5.01;73.53
22753;BME280;11543;43.144;24.684;2023-12-20T03:58:07;98781.91;;;5.09;73.26
22753;BME280;11543;43.144;24.684;2023-12-20T04:00:32;98785.75;;;5.17;73.19
22753;BME280;11543;43.144;24.684;2023-12-20T04:02:58;98787.22;;;5.21;73.46
22753;BME280;11543;43.144;24.684;2023-12-20T04:05:23;98795.44;;;5.29;73.00
22753;BME280;11543;43.144;24.684;2023-12-20T04:07:49;98794.94;;;5.35;72.86
22753;BME280;11543;43.144;24.684;2023-12-20T04:10:15;98798.34;;;5.37;72.86
22753;BME280;11543;43.144;24.684;2023-12-20T04:12:41;98779.25;;;5.32;72.60
22753;BME280;11543;43.144;24.684;2023-12-20T04:15:07;98767.66;;;5.22;72.82
22753;BME280;11543;43.144;24.684;2023-12-20T04:17:35;98789.38;;;5.16;72.44
22753;BME280;11543;43.144;24.684;2023-12-20T04:20:01;98772.59;;;4.93;72.44
22753;BME280;11543;43.144;24.684;2023-12-20T04:22:26;98771.16;;;4.89;72.95
22753;BME280;11543;43.144;24.684;2023-12-20T04:24:52;98758.34;;;4.71;73.24
22753;BME280;11543;43.144;24.684;2023-12-20T04:27:17;98754.59;;;4.63;73.51
22753;BME280;11543;43.144;24.684;2023-12-20T04:29:43;98725.63;;;4.48;73.94
22753;BME280;11543;43.144;24.684;2023-12-20T04:32:08;98748.56;;;4.72;74.11
22753;BME280;11543;43.144;24.684;2023-12-20T04:34:34;98764.03;;;4.89;73.44
22753;BME280;11543;43.144;24.684;2023-12-20T04:36:59;98736.00;;;4.74;73.69
22753;BME280;11543;43.144;24.684;2023-12-20T04:39:26;98744.47;;;4.79;73.74
22753;BME280;11543;43.144;24.684;2023-12-20T04:41:52;98726.22;;;4.74;73.60
22753;BME280;11543;43.144;24.684;2023-12-20T04:44:18;98707.03;;;4.60;73.32
22753;BME280;11543;43.144;24.684;2023-12-20T04:46:43;98725.38;;;4.74;73.44
22753;BME280;11543;43.144;24.684;2023-12-20T04:49:09;98736.22;;;4.93;73.66
22753;BME280;11543;43.144;24.684;2023-12-20T04:51:35;98735.50;;;5.02;74.00
22753;BME280;11543;43.144;24.684;2023-12-20T04:54:03;98718.09;;;4.98;73.48
22753;BME280;11543;43.144;24.684;2023-12-20T04:56:29;98692.50;;;4.86;73.40
22753;BME280;11543;43.144;24.684;2023-12-20T04:58:55;98735.94;;;5.19;73.21
22753;BME280;11543;43.144;24.684;2023-12-20T05:01:20;98744.91;;;5.29;72.86
22753;BME280;11543;43.144;24.684;2023-12-20T05:03:46;98730.88;;;5.16;72.82
22753;BME280;11543;43.144;24.684;2023-12-20T05:06:12;98705.28;;;5.03;72.86
22753;BME280;11543;43.144;24.684;2023-12-20T05:08:38;98699.25;;;5.01;72.85
22753;BME280;11543;43.144;24.684;2023-12-20T05:11:04;98733.41;;;5.17;72.81
22753;BME280;11543;43.144;24.684;2023-12-20T05:13:29;98733.66;;;5.14;72.60
22753;BME280;11543;43.144;24.684;2023-12-20T05:15:55;98714.47;;;4.99;72.72
22753;BME280;11543;43.144;24.684;2023-12-20T05:18:21;98711.34;;;4.72;72.61
22753;BME280;11543;43.144;24.684;2023-12-20T05:20:48;98706.53;;;4.55;72.54
22753;BME280;11543;43.144;24.684;2023-12-20T05:23:14;98718.38;;;4.51;72.39
22753;BME280;11543;43.144;24.684;2023-12-20T05:25:40;98675.09;;;4.15;73.00
22753;BME280;11543;43.144;24.684;2023-12-20T05:28:06;98722.00;;;4.50;73.24
22753;BME280;11543;43.144;24.684;2023-12-20T05:30:32;98716.91;;;4.46;73.56
22753;BME280;11543;43.144;24.684;2023-12-20T05:32:58;98701.81;;;4.47;74.08
22753;BME280;11543;43.144;24.684;2023-12-20T05:35:23;98700.25;;;4.56;74.41
22753;BME280;11543;43.144;24.684;2023-12-20T05:37:49;98706.16;;;4.70;73.88
22753;BME280;11543;43.144;24.684;2023-12-20T05:40:18;98690.59;;;4.66;74.53
22753;BME280;11543;43.144;24.684;2023-12-20T05:42:43;98689.84;;;4.75;73.88
22753;BME280;11543;43.144;24.684;2023-12-20T05:45:09;98713.03;;;4.95;73.64
22753;BME280;11543;43.144;24.684;2023-12-20T05:47:36;98705.53;;;5.00;73.75
22753;BME280;11543;43.144;24.684;2023-12-20T05:50:01;98695.50;;;4.93;73.18
22753;BME280;11543;43.144;24.684;2023-12-20T05:52:29;98693.19;;;4.99;73.41
22753;BME280;11543;43.144;24.684;2023-12-20T05:54:54;98706.72;;;5.07;73.12
22753;BME280;11543;43.144;24.684;2023-12-20T05:57:23;98685.81;;;5.03;72.80
22753;BME280;11543;43.144;24.684;2023-12-20T05:59:48;98689.19;;;5.05;72.76
22753;BME280;11543;43.144;24.684;2023-12-20T06:02:16;98674.34;;;5.02;72.70
22753;BME280;11543;43.144;24.684;2023-12-20T06:04:42;98696.81;;;5.21;72.06
22753;BME280;11543;43.144;24.684;2023-12-20T06:07:11;98653.56;;;4.96;72.19
22753;BME280;11543;43.144;24.684;2023-12-20T06:09:37;98672.28;;;5.06;72.24
22753;BME280;11543;43.144;24.684;2023-12-20T06:12:02;98665.41;;;5.03;72.35
22753;BME280;11543;43.144;24.684;2023-12-20T06:14:28;98665.19;;;4.95;72.47
22753;BME280;11543;43.144;24.684;2023-12-20T06:16:55;98676.91;;;4.93;72.28
22753;BME280;11543;43.144;24.684;2023-12-20T06:19:21;98680.19;;;4.85;72.38
22753;BME280;11543;43.144;24.684;2023-12-20T06:21:49;98687.31;;;4.73;72.44
22753;BME280;11543;43.144;24.684;2023-12-20T06:24:15;98680.69;;;4.57;72.53
22753;BME280;11543;43.144;24.684;2023-12-20T06:26:41;98658.44;;;4.24;72.21
22753;BME280;11543;43.144;24.684;2023-12-20T06:29:06;98658.69;;;4.32;73.21
22753;BME280;11543;43.144;24.684;2023-12-20T06:31:32;98701.56;;;4.72;73.31
22753;BME280;11543;43.144;24.684;2023-12-20T06:33:59;98684.19;;;4.68;73.18
22753;BME280;11543;43.144;24.684;2023-12-20T06:36:26;98677.31;;;4.55;73.50
22753;BME280;11543;43.144;24.684;2023-12-20T06:38:51;98672.13;;;4.53;73.88
22753;BME280;11543;43.144;24.684;2023-12-20T06:41:17;98671.75;;;4.58;74.23
22753;BME280;11543;43.144;24.684;2023-12-20T06:43:42;98671.03;;;4.67;73.90
22753;BME280;11543;43.144;24.684;2023-12-20T06:46:08;98636.50;;;4.56;74.00
22753;BME280;11543;43.144;24.684;2023-12-20T06:48:34;98635.88;;;4.63;73.79
22753;BME280;11543;43.144;24.684;2023-12-20T06:51:01;98661.19;;;4.90;73.66
22753;BME280;11543;43.144;24.684;2023-12-20T06:53:29;98659.38;;;5.01;73.94
22753;BME280;11543;43.144;24.684;2023-12-20T06:55:55;98665.16;;;5.06;73.97
22753;BME280;11543;43.144;24.684;2023-12-20T06:58:24;98654.50;;;5.06;73.72
22753;BME280;11543;43.144;24.684;2023-12-20T07:00:51;98656.81;;;5.00;73.54
22753;BME280;11543;43.144;24.684;2023-12-20T07:03:17;98674.22;;;5.04;73.86
22753;BME280;11543;43.144;24.684;2023-12-20T07:05:43;98672.44;;;4.93;73.49
22753;BME280;11543;43.144;24.684;2023-12-20T07:08:11;98627.81;;;4.54;73.71
22753;BME280;11543;43.144;24.684;2023-12-20T07:10:41;98658.69;;;4.66;73.90
22753;BME280;11543;43.144;24.684;2023-12-20T07:13:07;98648.56;;;4.60;73.77
22753;BME280;11543;43.144;24.684;2023-12-20T07:15:33;98651.47;;;4.68;74.63
22753;BME280;11543;43.144;24.684;2023-12-20T07:17:59;98645.41;;;4.77;74.57
22753;BME280;11543;43.144;24.684;2023-12-20T07:20:27;98644.91;;;4.83;74.74
22753;BME280;11543;43.144;24.684;2023-12-20T07:22:52;98650.06;;;4.96;74.52
22753;BME280;11543;43.144;24.684;2023-12-20T07:25:18;98621.94;;;4.82;73.84
22753;BME280;11543;43.144;24.684;2023-12-20T07:27:44;98629.91;;;4.93;74.19
22753;BME280;11543;43.144;24.684;2023-12-20T07:30:10;98666.34;;;5.25;74.71
22753;BME280;11543;43.144;24.684;2023-12-20T07:32:36;98648.56;;;5.25;74.78
22753;BME280;11543;43.144;24.684;2023-12-20T07:35:02;98656.13;;;5.41;74.76
22753;BME280;11543;43.144;24.684;2023-12-20T07:37:28;98635.09;;;5.38;74.71
22753;BME280;11543;43.144;24.684;2023-12-20T07:39:54;98649.97;;;5.61;74.61
22753;BME280;11543;43.144;24.684;2023-12-20T07:42:19;98622.19;;;5.54;74.86
22753;BME280;11543;43.144;24.684;2023-12-20T07:44:47;98621.28;;;5.65;74.96
22753;BME280;11543;43.144;24.684;2023-12-20T07:47:12;98602.66;;;5.65;75.09
22753;BME280;11543;43.144;24.684;2023-12-20T07:49:40;98630.09;;;5.86;74.48
22753;BME280;11543;43.144;24.684;2023-12-20T07:52:06;98601.03;;;5.73;74.73
22753;BME280;11543;43.144;24.684;2023-12-20T07:54:31;98621.28;;;5.86;74.74
22753;BME280;11543;43.144;24.684;2023-12-20T07:56:57;98639.81;;;6.08;74.27
22753;BME280;11543;43.144;24.684;2023-12-20T07:59:22;98624.44;;;6.12;74.16
22753;BME280;11543;43.144;24.684;2023-12-20T08:01:48;98590.66;;;5.91;74.54
22753;BME280;11543;43.144;24.684;2023-12-20T08:04:13;98602.00;;;6.14;74.36
22753;BME280;11543;43.144;24.684;2023-12-20T08:06:39;98606.94;;;6.19;74.20
22753;BME280;11543;43.144;24.684;2023-12-20T08:09:04;98616.25;;;6.34;73.92
22753;BME280;11543;43.144;24.684;2023-12-20T08:11:30;98617.81;;;6.36;73.94
22753;BME280;11543;43.144;24.684;2023-12-20T08:13:56;98625.53;;;6.39;73.77
22753;BME280;11543;43.144;24.684;2023-12-20T08:16:21;98607.16;;;6.36;73.44
22753;BME280;11543;43.144;24.684;2023-12-20T08:18:47;98614.78;;;6.51;73.26
22753;BME280;11543;43.144;24.684;2023-12-20T08:21:12;98608.91;;;6.57;72.52
22753;BME280;11543;43.144;24.684;2023-12-20T08:23:38;98594.47;;;6.59;71.50
22753;BME280;11543;43.144;24.684;2023-12-20T08:26:05;98608.09;;;6.66;71.24
22753;BME280;11543;43.144;24.684;2023-12-20T08:28:31;98590.25;;;6.57;71.27
22753;BME280;11543;43.144;24.684;2023-12-20T08:30:59;98589.56;;;6.64;71.44
22753;BME280;11543;43.144;24.684;2023-12-20T08:33:25;98593.22;;;6.73;72.11
22753;BME280;11543;43.144;24.684;2023-12-20T08:35:50;98583.69;;;6.80;72.44
22753;BME280;11543;43.144;24.684;2023-12-20T08:38:16;98588.22;;;6.89;71.72
22753;BME280;11543;43.144;24.684;2023-12-20T08:40:43;98596.13;;;7.00;71.89
22753;BME280;11543;43.144;24.684;2023-12-20T08:43:08;98563.22;;;6.90;72.38
22753;BME280;11543;43.144;24.684;2023-12-20T08:45:34;98542.34;;;6.95;71.69
22753;BME280;11543;43.144;24.684;2023-12-20T08:47:59;98563.25;;;7.19;71.49
22753;BME280;11543;43.144;24.684;2023-12-20T08:50:25;98557.38;;;7.16;72.02
22753;BME280;11543;43.144;24.684;2023-12-20T08:52:51;98533.94;;;7.10;72.21
22753;BME280;11543;43.144;24.684;2023-12-20T08:55:16;98550.91;;;7.28;72.47
22753;BME280;11543;43.144;24.684;2023-12-20T08:57:43;98557.06;;;7.38;71.98
22753;BME280;11543;43.144;24.684;2023-12-20T09:00:09;98526.59;;;7.31;71.45
22753;BME280;11543;43.144;24.684;2023-12-20T09:02:35;98504.84;;;7.26;71.58
22753;BME280;11543;43.144;24.684;2023-12-20T09:05:02;98535.69;;;7.57;72.08
22753;BME280;11543;43.144;24.684;2023-12-20T09:07:28;98506.75;;;7.53;70.80
22753;BME280;11543;43.144;24.684;2023-12-20T09:09:56;98512.38;;;7.59;70.05
22753;BME280;11543;43.144;24.684;2023-12-20T09:12:22;98482.59;;;7.54;69.18
22753;BME280;11543;43.144;24.684;2023-12-20T09:14:49;98511.75;;;7.85;68.78
22753;BME280;11543;43.144;24.684;2023-12-20T09:17:16;98505.03;;;7.81;68.80
22753;BME280;11543;43.144;24.684;2023-12-20T09:19:43;98495.44;;;7.88;69.38
22753;BME280;11543;43.144;24.684;2023-12-20T09:22:09;98479.41;;;7.88;69.38
22753;BME280;11543;43.144;24.684;2023-12-20T09:24:34;98486.88;;;8.12;68.83
22753;BME280;11543;43.144;24.684;2023-12-20T09:27:00;98473.09;;;8.16;68.31
22753;BME280;11543;43.144;24.684;2023-12-20T09:29:25;98456.75;;;8.19;68.76
22753;BME280;11543;43.144;24.684;2023-12-20T09:31:51;98467.06;;;8.42;69.18
22753;BME280;11543;43.144;24.684;2023-12-20T09:34:17;98457.81;;;8.54;69.45
22753;BME280;11543;43.144;24.684;2023-12-20T09:36:43;98435.13;;;8.58;69.66
22753;BME280;11543;43.144;24.684;2023-12-20T09:39:14;98461.91;;;8.93;68.45
22753;BME280;11543;43.144;24.684;2023-12-20T09:41:43;98454.78;;;9.02;68.13
22753;BME280;11543;43.144;24.684;2023-12-20T09:44:15;98443.00;;;9.13;67.75
22753;BME280;11543;43.144;24.684;2023-12-20T09:46:44;98468.63;;;9.41;65.58
22753;BME280;11543;43.144;24.684;2023-12-20T09:49:11;98446.66;;;9.55;65.02
22753;BME280;11543;43.144;24.684;2023-12-20T09:51:38;98421.00;;;9.53;65.08
22753;BME280;11543;43.144;24.684;2023-12-20T09:54:04;98443.09;;;9.81;65.61
22753;BME280;11543;43.144;24.684;2023-12-20T09:56:30;98406.91;;;9.77;67.24
22753;BME280;11543;43.144;24.684;2023-12-20T09:58:56;98411.00;;;9.89;67.18
22753;BME280;11543;43.144;24.684;2023-12-20T10:01:22;98431.88;;;10.19;66.60
22753;BME280;11543;43.144;24.684;2023-12-20T10:03:51;98415.31;;;10.24;65.52
22753;BME280;11543;43.144;24.684;2023-12-20T10:06:19;98411.16;;;10.38;65.32
22753;BME280;11543;43.144;24.684;2023-12-20T10:08:45;98370.28;;;10.36;62.42
22753;BME280;11543;43.144;24.684;2023-12-20T10:11:10;98362.94;;;10.54;60.69
22753;BME280;11543;43.144;24.684;2023-12-20T10:13:40;98359.59;;;10.68;59.82
22753;BME280;11543;43.144;24.684;2023-12-20T10:16:06;98371.66;;;10.89;59.39
22753;BME280;11543;43.144;24.684;2023-12-20T10:18:33;98368.63;;;11.00;58.59
22753;BME280;11543;43.144;24.684;2023-12-20T10:20:59;98379.53;;;11.14;58.60
22753;BME280;11543;43.144;24.684;2023-12-20T10:23:25;98345.31;;;11.08;59.13
22753;BME280;11543;43.144;24.684;2023-12-20T10:26:00;98355.84;;;11.34;56.82
22753;BME280;11543;43.144;24.684;2023-12-20T10:28:26;98358.34;;;11.44;55.02
22753;BME280;11543;43.144;24.684;2023-12-20T10:30:55;98330.97;;;11.48;56.15
22753;BME280;11543;43.144;24.684;2023-12-20T10:33:27;98343.97;;;11.68;56.22
22753;BME280;11543;43.144;24.684;2023-12-20T10:35:55;98337.91;;;11.74;55.47
22753;BME280;11543;43.144;24.684;2023-12-20T10:38:20;98326.31;;;11.73;55.27
22753;BME280;11543;43.144;24.684;2023-12-20T10:40:46;98337.56;;;11.85;55.24
22753;BME280;11543;43.144;24.684;2023-12-20T10:43:12;98307.50;;;11.73;55.25
22753;BME280;11543;43.144;24.684;2023-12-20T10:45:38;98325.38;;;11.97;57.25
22753;BME280;11543;43.144;24.684;2023-12-20T10:48:04;98312.44;;;12.01;58.49
22753;BME280;11543;43.144;24.684;2023-12-20T10:50:30;98323.97;;;12.18;58.49
22753;BME280;11543;43.144;24.684;2023-12-20T10:52:57;98315.88;;;12.18;59.39
22753;BME280;11543;43.144;24.684;2023-12-20T10:55:24;98309.91;;;12.30;56.00
22753;BME280;11543;43.144;24.684;2023-12-20T10:57:51;98307.03;;;12.32;55.25
22753;BME280;11543;43.144;24.684;2023-12-20T11:00:18;98297.00;;;12.26;53.92
22753;BME280;11543;43.144;24.684;2023-12-20T11:02:44;98304.66;;;12.37;54.58
22753;BME280;11543;43.144;24.684;2023-12-20T11:10:39;98283.13;;;12.37;53.37
22753;BME280;11543;43.144;24.684;2023-12-20T11:13:20;98290.78;;;12.48;52.72
22753;BME280;11543;43.144;24.684;2023-12-20T11:15:47;98284.09;;;12.44;52.70
22753;BME280;11543;43.144;24.684;2023-12-20T11:18:13;98280.00;;;12.48;52.61
22753;BME280;11543;43.144;24.684;2023-12-20T11:20:40;98284.66;;;12.54;52.64
22753;BME280;11543;43.144;24.684;2023-12-20T11:23:08;98288.97;;;12.63;52.74
22753;BME280;11543;43.144;24.684;2023-12-20T11:25:52;98292.41;;;12.72;52.34
22753;BME280;11543;43.144;24.684;2023-12-20T11:28:23;98289.91;;;12.70;52.69
22753;BME280;11543;43.144;24.684;2023-12-20T11:30:55;98279.50;;;12.67;52.68
22753;BME280;11543;43.144;24.684;2023-12-20T11:33:31;98266.25;;;12.66;53.06
22753;BME280;11543;43.144;24.684;2023-12-20T11:35:57;98281.75;;;12.79;52.91
22753;BME280;11543;43.144;24.684;2023-12-20T11:38:23;98267.75;;;12.83;53.11
22753;BME280;11543;43.144;24.684;2023-12-20T11:40:49;98264.22;;;12.83;52.40
22753;BME280;11543;43.144;24.684;2023-12-20T11:43:30;98272.88;;;12.93;52.64
22753;BME280;11543;43.144;24.684;2023-12-20T11:46:03;98262.47;;;12.90;53.01
22753;BME280;11543;43.144;24.684;2023-12-20T11:48:30;98253.38;;;12.91;53.49
22753;BME280;11543;43.144;24.684;2023-12-20T11:50:56;98267.44;;;13.01;52.63
22753;BME280;11543;43.144;24.684;2023-12-20T11:53:22;98253.13;;;13.00;53.43
22753;BME280;11543;43.144;24.684;2023-12-20T11:55:49;98239.16;;;12.97;52.96
22753;BME280;11543;43.144;24.684;2023-12-20T11:58:14;98242.16;;;13.02;53.58
22753;BME280;11543;43.144;24.684;2023-12-20T12:00:42;98234.09;;;13.02;52.34
22753;BME280;11543;43.144;24.684;2023-12-20T12:03:08;98235.84;;;13.10;51.95
22753;BME280;11543;43.144;24.684;2023-12-20T12:05:34;98210.88;;;13.01;51.63
22753;BME280;11543;43.144;24.684;2023-12-20T12:07:59;98185.03;;;12.92;52.31
22753;BME280;11543;43.144;24.684;2023-12-20T12:10:25;98208.09;;;13.09;51.73
22753;BME280;11543;43.144;24.684;2023-12-20T12:12:50;98191.56;;;13.12;52.52
22753;BME280;11543;43.144;24.684;2023-12-20T12:15:16;98196.22;;;13.18;52.26
22753;BME280;11543;43.144;24.684;2023-12-20T12:17:41;98167.44;;;13.04;51.35
22753;BME280;11543;43.144;24.684;2023-12-20T12:20:07;98190.28;;;13.23;52.08
22753;BME280;11543;43.144;24.684;2023-12-20T12:22:35;98158.22;;;13.13;52.96
22753;BME280;11543;43.144;24.684;2023-12-20T12:25:12;98184.97;;;13.29;53.27
22753;BME280;11543;43.144;24.684;2023-12-20T12:27:41;98171.25;;;13.24;54.17
22753;BME280;11543;43.144;24.684;2023-12-20T12:30:08;98171.25;;;13.24;54.65
22753;BME280;11543;43.144;24.684;2023-12-20T12:32:35;98168.16;;;13.27;54.86
22753;BME280;11543;43.144;24.684;2023-12-20T12:35:03;98159.44;;;13.25;53.86
22753;BME280;11543;43.144;24.684;2023-12-20T12:37:33;98169.91;;;13.35;54.46
22753;BME280;11543;43.144;24.684;2023-12-20T12:39:59;98152.66;;;13.29;54.96
22753;BME280;11543;43.144;24.684;2023-12-20T12:42:24;98143.66;;;13.22;56.14
22753;BME280;11543;43.144;24.684;2023-12-20T12:44:54;98171.22;;;13.39;55.03
22753;BME280;11543;43.144;24.684;2023-12-20T12:47:20;98158.31;;;13.34;54.53
22753;BME280;11543;43.144;24.684;2023-12-20T12:49:46;98146.16;;;13.24;54.00
22753;BME280;11543;43.144;24.684;2023-12-20T12:52:11;98147.16;;;13.37;53.93
22753;BME280;11543;43.144;24.684;2023-12-20T12:54:37;98141.41;;;13.26;54.08
22753;BME280;11543;43.144;24.684;2023-12-20T12:57:02;98144.94;;;13.26;53.72
22753;BME280;11543;43.144;24.684;2023-12-20T12:59:28;98143.28;;;13.25;53.85